ADDS METAR Data INFO
IDs: Format: Raw Decoded Include TAF

Data at: 2052 UTC 24 Jun 2018

KE38 242035Z AUTO 23012G16KT 10SM CLR 37/05 A2999 RMK AO2 T03720054
KE38 242015Z AUTO 26012G20KT 10SM CLR 37/05 A2999 RMK AO2 T03690054
KE38 241955Z AUTO 26012G18KT 240V310 10SM CLR 37/06 A3000 RMK AO2 T03700060
KE38 241935Z AUTO 27011G20KT 10SM CLR 37/05 A3000 RMK AO2 T03660049
KE38 241915Z AUTO 27015G19KT 10SM CLR 37/05 A3001 RMK AO2 T03690049
KE38 241855Z AUTO 24007G18KT 10SM CLR 36/05 A3001 RMK AO2 T03630046
KE38 241835Z AUTO 30013G17KT 10SM CLR 36/05 A3002 RMK AO2 T03620047
KE38 241815Z AUTO 29012G19KT 10SM CLR 36/05 A3003 RMK AO2 T03580046
KE38 241755Z AUTO 25011G17KT 220V290 10SM CLR 35/05 A3003 RMK AO2 T03490045 10353 20223
KE38 241735Z AUTO 22008G17KT 10SM CLR 35/05 A3003 RMK AO2 T03530053
KE38 241715Z AUTO 27009G16KT 10SM CLR 34/06 A3003 RMK AO2 T03440062
KE38 241655Z AUTO 27007G15KT 230V320 10SM CLR 34/06 A3003 RMK AO2 T03370064
KE38 241635Z AUTO 25009KT 10SM CLR 34/07 A3003 RMK AO2 T03360073
KE38 241615Z AUTO 26007G14KT 10SM CLR 33/08 A3004 RMK AO2 T03270079
KE38 241555Z AUTO 26009KT 10SM CLR 33/08 A3003 RMK AO2 T03250081
KE38 241535Z AUTO 26009KT 10SM CLR 32/09 A3003 RMK AO2 T03150090
KE38 241515Z AUTO 27009KT 10SM CLR 31/08 A3004 RMK AO2 T03080084
KE38 241455Z AUTO 23007KT 10SM CLR 30/08 A3004 RMK AO2 T03030078
KE38 241435Z AUTO 20009KT 10SM CLR 30/08 A3004 RMK AO2 T02950082
KE38 241415Z AUTO 20010KT 10SM CLR 29/09 A3004 RMK AO2 T02900085
KE38 241355Z AUTO 22008KT 10SM CLR 28/08 A3003 RMK AO2 T02810082
KE38 241335Z AUTO 22008KT 10SM CLR 27/09 A3003 RMK AO2 T02730085
KE38 241315Z AUTO 22007KT 10SM CLR 26/09 A3003 RMK AO2 T02610090
KE38 241255Z AUTO 23004KT 10SM CLR 25/10 A3002 RMK AO2 T02460096
KE38 241235Z AUTO 23009KT 10SM CLR 24/09 A3002 RMK AO2 T02380092
KE38 241215Z AUTO 21006KT 10SM CLR 23/09 A3002 RMK AO2 T02290091
KE38 241155Z AUTO 20006KT 10SM CLR 23/09 A3001 RMK AO2 T02330091 10279 20225
KE38 241135Z AUTO 15003KT 10SM CLR 24/09 A3001 RMK AO2 T02360090
KE38 241115Z AUTO 19005KT 10SM CLR 23/09 A3000 RMK AO2 T02310090
KE38 241055Z AUTO 20006KT 10SM CLR 24/09 A3000 RMK AO2 T02430090
KE38 241035Z AUTO 25008KT 10SM CLR 25/09 A2999 RMK AO2 T02470088
KE38 241015Z AUTO 25010KT 10SM CLR 26/09 A2998 RMK AO2 T02560088
KE38 240955Z AUTO 25009KT 10SM CLR 25/09 A2998 RMK AO2 T02470087
KE38 240935Z AUTO 23007KT 10SM CLR 26/09 A2998 RMK AO2 T02560088
KE38 240915Z AUTO 22011KT 10SM CLR 26/09 A2997 RMK AO2 T02590091
KE38 240855Z AUTO 23009KT 10SM CLR 26/10 A2997 RMK AO2 T02570095
KE38 240835Z AUTO 24007KT 10SM CLR 26/10 A2997 RMK AO2 T02550095
KE38 240815Z AUTO 22004KT 10SM CLR 26/09 A2997 RMK AO2 T02620092
KE38 240755Z AUTO 27006KT 10SM CLR 26/10 A2997 RMK AO2 T02580096
KE38 240735Z AUTO 22005KT 10SM CLR 27/10 A2997 RMK AO2 T02710100
KE38 240715Z AUTO 21003KT 10SM CLR 26/10 A2997 RMK AO2 T02640104
KE38 240655Z AUTO 00000KT 10SM CLR 26/11 A2997 RMK AO2 T02630109
KE38 240635Z AUTO 17006KT 10SM CLR 28/11 A2998 RMK AO2 T02770112
KE38 240615Z AUTO 14007KT 10SM CLR 27/12 A2997 RMK AO2 T02710115
KE38 240555Z AUTO 16008KT 10SM CLR 28/12 A2996 RMK AO2 T02800115 10377 20258 403840236
KE38 240535Z AUTO 18009KT 10SM CLR 29/11 A2996 RMK AO2 T02940114
KE38 240515Z AUTO 21010KT 10SM CLR 29/11 A2996 RMK AO2 T02860108
KE38 240455Z AUTO 19008KT 10SM CLR 29/11 A2995 RMK AO2 T02880106
KE38 240435Z AUTO 18006KT 10SM CLR 27/09 A2994 RMK AO2 T02710092
KE38 240415Z AUTO 16009KT 10SM CLR 29/10 A2994 RMK AO2 T02900096
KE38 240355Z AUTO 14010G14KT 10SM CLR 29/05 A2993 RMK AO2 T02900046
KE38 240335Z AUTO 11004KT 10SM CLR 29/M02 A2992 RMK AO2 T02881023
KE38 240315Z AUTO 12003KT 10SM CLR 26/00 A2992 RMK AO2 T02601005
KE38 240255Z AUTO 24007KT 10SM CLR 27/00 A2991 RMK AO2 T02671004
KE38 240235Z AUTO 24007KT 10SM CLR 28/00 A2991 RMK AO2 T02761003
KE38 240215Z AUTO 25007KT 10SM CLR 28/01 A2991 RMK AO2 T02790009
KE38 240155Z AUTO 24007KT 10SM CLR 31/00 A2991 RMK AO2 T03061003
KE38 240135Z AUTO 24005KT 10SM CLR 34/M01 A2991 RMK AO2 T03371014
KE38 240115Z AUTO 23005KT 10SM CLR 35/M02 A2990 RMK AO2 T03531020
KE38 240055Z AUTO 23006KT 10SM CLR 36/M02 A2990 RMK AO2 T03641024
KE38 240035Z AUTO 00000KT 10SM CLR 37/M04 A2990 RMK AO2 T03711041
KE38 240015Z AUTO 26004KT 10SM CLR 38/M03 A2991 RMK AO2 T03751035
KE38 232355Z AUTO 26003KT 10SM CLR 38/M04 A2991 RMK AO2 T03771040 10384 20363
KE38 232335Z AUTO 29005KT 10SM CLR 38/M03 A2991 RMK AO2 T03801030
KE38 232315Z AUTO 30008KT 10SM CLR 38/M02 A2991 RMK AO2 T03811018
KE38 232255Z AUTO 28003KT 10SM CLR 38/M03 A2992 RMK AO2 T03781029
KE38 232235Z AUTO 26006G15KT 10SM CLR 38/M01 A2992 RMK AO2 T03811010
KE38 232215Z AUTO 20006KT 10SM CLR 38/M02 A2993 RMK AO2 T03821016
KE38 232155Z AUTO 31004KT 10SM CLR 38/M02 A2994 RMK AO2 T03811022
KE38 232135Z AUTO 24005G08KT 10SM CLR 38/M01 A2994 RMK AO2 T03821010
KE38 232115Z AUTO 27009KT 10SM CLR 38/M01 A2995 RMK AO2 T03771012
KE38 232055Z AUTO 19007G15KT 10SM CLR 38/01 A2995 RMK AO2 T03820012
KE38 232035Z AUTO 16004KT 10SM CLR 38/01 A2996 RMK AO2 T03770007
KE38 232015Z AUTO 23011G14KT 10SM CLR 38/02 A2996 RMK AO2 T03780018
KE38 231955Z AUTO 23009G14KT 10SM CLR 37/02 A2996 RMK AO2 T03700018
KE38 231935Z AUTO 28009KT 220V320 10SM CLR 37/02 A2997 RMK AO2 T03710023
KE38 231915Z AUTO 24011G17KT 10SM CLR 37/02 A2997 RMK AO2 T03730022
KE38 231855Z AUTO 27006G16KT 10SM CLR 37/02 A2998 RMK AO2 T03670021
KE38 231835Z AUTO 23009G18KT 10SM CLR 37/03 A2999 RMK AO2 T03690029
KE38 231815Z AUTO 27013G19KT 10SM CLR 37/01 A2999 RMK AO2 T03670014
KE38 231755Z AUTO 23013G26KT 10SM CLR 36/03 A2999 RMK AO2 T03630033 10363 20251
KE38 231735Z AUTO 25014G20KT 10SM CLR 36/08 A3000 RMK AO2 T03580081
KE38 231715Z AUTO 22014G18KT 10SM CLR 35/12 A3000 RMK AO2 T03470119
KE38 231655Z AUTO 22013G21KT 10SM CLR 34/12 A3000 RMK AO2 T03400116
KE38 231635Z AUTO 22014G20KT 10SM CLR 34/13 A3000 RMK AO2 T03360125
KE38 231615Z AUTO 22016G21KT 10SM CLR 33/12 A3001 RMK AO2 T03280124
KE38 231555Z AUTO 22016G19KT 10SM CLR 32/13 A3001 RMK AO2 T03220125
KE38 231535Z AUTO 22016G24KT 10SM CLR 32/13 A3002 RMK AO2 T03160132
KE38 231515Z AUTO 22014G20KT 10SM CLR 31/14 A3001 RMK AO2 T03080136
KE38 231455Z AUTO 22016G20KT 10SM CLR 30/14 A3001 RMK AO2 T03020139
KE38 231435Z AUTO 23019G22KT 10SM CLR 30/14 A3001 RMK AO2 T02960136
KE38 231415Z AUTO 23016G22KT 10SM CLR 29/14 A3000 RMK AO2 T02860140
KE38 231355Z AUTO 23018G21KT 10SM CLR 28/14 A3000 RMK AO2 T02790142
KE38 231335Z AUTO 22015G18KT 10SM CLR 27/15 A3000 RMK AO2 T02710146
KE38 231315Z AUTO 22015KT 10SM CLR 26/15 A3000 RMK AO2 T02620150
KE38 231255Z AUTO 22010KT 10SM CLR 26/15 A3000 RMK AO2 T02570149
KE38 231235Z AUTO 22008KT 10SM CLR 25/15 A3000 RMK AO2 T02520148
KE38 231215Z AUTO 23014G21KT 10SM CLR 26/14 A2999 RMK AO2 T02610142
KE38 231155Z AUTO 23009G14KT 10SM CLR 25/14 A2999 RMK AO2 T02490142 10255 20236
KE38 231135Z AUTO 17007KT 10SM CLR 25/15 A2998 RMK AO2 T02460145
KE38 231115Z AUTO 22009KT 10SM CLR 25/15 A2998 RMK AO2 T02480150
KE38 231055Z AUTO 23009KT 10SM CLR 25/15 A2996 RMK AO2 T02490150
KE38 231035Z AUTO 22012KT 10SM CLR 25/15 A2996 RMK AO2 T02510152
KE38 231015Z AUTO 21010KT 10SM CLR 25/15 A2996 RMK AO2 T02540151
KE38 230955Z AUTO 21012KT 10SM CLR 25/15 A2996 RMK AO2 T02500150
KE38 230935Z AUTO 21010KT 10SM CLR 25/15 A2996 RMK AO2 T02480150
KE38 230915Z AUTO 20009KT 10SM CLR 24/15 A2996 RMK AO2 T02400152
KE38 230855Z AUTO 20009KT 10SM CLR 24/15 A2997 RMK AO2 T02420153